sensor_id;sensor_type;location;lat;lon;timestamp;temperature;humidity
12254;DHT22;6189;52.526;13.390;2023-04-06T00:02:07;8.40;84.40
12254;DHT22;6189;52.526;13.390;2023-04-06T00:04:54;8.40;84.40
12254;DHT22;6189;52.526;13.390;2023-04-06T00:07:40;8.30;85.00
12254;DHT22;6189;52.526;13.390;2023-04-06T00:10:26;8.40;86.60
12254;DHT22;6189;52.526;13.390;2023-04-06T00:13:11;8.40;84.80
12254;DHT22;6189;52.526;13.390;2023-04-06T00:15:57;8.30;84.10
12254;DHT22;6189;52.526;13.390;2023-04-06T00:18:43;8.10;84.50
12254;DHT22;6189;52.526;13.390;2023-04-06T00:21:30;8.00;85.20
12254;DHT22;6189;52.526;13.390;2023-04-06T00:24:16;8.00;84.90
12254;DHT22;6189;52.526;13.390;2023-04-06T00:27:02;7.80;85.00
12254;DHT22;6189;52.526;13.390;2023-04-06T00:29:48;7.90;86.00
12254;DHT22;6189;52.526;13.390;2023-04-06T00:32:34;8.00;85.70
12254;DHT22;6189;52.526;13.390;2023-04-06T00:35:20;7.90;85.60
12254;DHT22;6189;52.526;13.390;2023-04-06T00:38:07;7.90;85.70
12254;DHT22;6189;52.526;13.390;2023-04-06T00:40:53;8.10;85.70
12254;DHT22;6189;52.526;13.390;2023-04-06T00:43:39;8.10;85.50
12254;DHT22;6189;52.526;13.390;2023-04-06T00:46:24;8.10;84.70
12254;DHT22;6189;52.526;13.390;2023-04-06T00:49:10;8.00;84.30
12254;DHT22;6189;52.526;13.390;2023-04-06T00:51:56;8.00;84.70
12254;DHT22;6189;52.526;13.390;2023-04-06T00:54:43;8.20;85.00
12254;DHT22;6189;52.526;13.390;2023-04-06T00:57:28;8.10;84.80
12254;DHT22;6189;52.526;13.390;2023-04-06T01:00:15;8.20;84.70
12254;DHT22;6189;52.526;13.390;2023-04-06T01:03:00;8.30;84.30
12254;DHT22;6189;52.526;13.390;2023-04-06T01:05:46;8.30;84.20
12254;DHT22;6189;52.526;13.390;2023-04-06T01:08:32;8.30;84.50
12254;DHT22;6189;52.526;13.390;2023-04-06T01:11:19;8.10;84.50
12254;DHT22;6189;52.526;13.390;2023-04-06T01:14:05;8.10;84.80
12254;DHT22;6189;52.526;13.390;2023-04-06T01:16:52;8.10;84.60
12254;DHT22;6189;52.526;13.390;2023-04-06T01:19:38;7.90;84.50
12254;DHT22;6189;52.526;13.390;2023-04-06T01:22:25;7.90;85.00
12254;DHT22;6189;52.526;13.390;2023-04-06T01:25:11;7.80;84.80
12254;DHT22;6189;52.526;13.390;2023-04-06T01:27:56;7.80;85.10
12254;DHT22;6189;52.526;13.390;2023-04-06T01:30:42;7.60;85.40
12254;DHT22;6189;52.526;13.390;2023-04-06T01:33:28;7.50;85.90
12254;DHT22;6189;52.526;13.390;2023-04-06T01:36:14;7.40;86.50
12254;DHT22;6189;52.526;13.390;2023-04-06T01:39:01;7.30;86.80
12254;DHT22;6189;52.526;13.390;2023-04-06T01:41:47;7.50;87.00
12254;DHT22;6189;52.526;13.390;2023-04-06T01:44:32;7.50;86.30
12254;DHT22;6189;52.526;13.390;2023-04-06T01:47:18;7.40;86.60
12254;DHT22;6189;52.526;13.390;2023-04-06T01:50:05;7.40;86.80
12254;DHT22;6189;52.526;13.390;2023-04-06T01:52:52;7.40;86.80
12254;DHT22;6189;52.526;13.390;2023-04-06T01:55:39;7.50;86.90
12254;DHT22;6189;52.526;13.390;2023-04-06T01:58:25;7.50;86.50
12254;DHT22;6189;52.526;13.390;2023-04-06T02:01:10;7.40;86.60
12254;DHT22;6189;52.526;13.390;2023-04-06T02:03:56;7.50;86.60
12254;DHT22;6189;52.526;13.390;2023-04-06T02:06:42;7.70;86.90
12254;DHT22;6189;52.526;13.390;2023-04-06T02:09:27;7.70;86.50
12254;DHT22;6189;52.526;13.390;2023-04-06T02:12:14;7.80;86.30
12254;DHT22;6189;52.526;13.390;2023-04-06T02:15:00;7.70;85.90
12254;DHT22;6189;52.526;13.390;2023-04-06T02:17:46;7.60;86.70
12254;DHT22;6189;52.526;13.390;2023-04-06T02:20:31;7.50;86.20
12254;DHT22;6189;52.526;13.390;2023-04-06T02:23:17;7.50;86.90
12254;DHT22;6189;52.526;13.390;2023-04-06T02:26:03;7.40;86.40
12254;DHT22;6189;52.526;13.390;2023-04-06T02:28:50;7.30;86.20
12254;DHT22;6189;52.526;13.390;2023-04-06T02:31:36;7.40;86.70
12254;DHT22;6189;52.526;13.390;2023-04-06T02:34:21;7.40;86.70
12254;DHT22;6189;52.526;13.390;2023-04-06T02:37:07;7.30;86.50
12254;DHT22;6189;52.526;13.390;2023-04-06T02:39:53;7.30;86.90
12254;DHT22;6189;52.526;13.390;2023-04-06T02:42:39;7.40;87.20
12254;DHT22;6189;52.526;13.390;2023-04-06T02:45:26;7.50;87.10
12254;DHT22;6189;52.526;13.390;2023-04-06T02:48:12;7.50;86.50
12254;DHT22;6189;52.526;13.390;2023-04-06T02:50:57;7.40;86.20
12254;DHT22;6189;52.526;13.390;2023-04-06T02:53:43;7.40;86.40
12254;DHT22;6189;52.526;13.390;2023-04-06T02:56:29;7.30;86.60
12254;DHT22;6189;52.526;13.390;2023-04-06T02:59:15;7.30;86.50
12254;DHT22;6189;52.526;13.390;2023-04-06T03:02:02;7.40;86.80
12254;DHT22;6189;52.526;13.390;2023-04-06T03:04:47;7.40;87.00
12254;DHT22;6189;52.526;13.390;2023-04-06T03:07:33;7.40;87.70
12254;DHT22;6189;52.526;13.390;2023-04-06T03:10:19;7.50;88.00
12254;DHT22;6189;52.526;13.390;2023-04-06T03:13:05;7.40;87.70
12254;DHT22;6189;52.526;13.390;2023-04-06T03:15:50;7.60;88.10
12254;DHT22;6189;52.526;13.390;2023-04-06T03:18:37;7.50;88.40
12254;DHT22;6189;52.526;13.390;2023-04-06T03:21:23;7.50;88.00
12254;DHT22;6189;52.526;13.390;2023-04-06T03:24:08;7.50;88.10
12254;DHT22;6189;52.526;13.390;2023-04-06T03:26:54;7.40;88.10
12254;DHT22;6189;52.526;13.390;2023-04-06T03:29:40;7.40;88.20
12254;DHT22;6189;52.526;13.390;2023-04-06T03:32:26;7.40;88.70
12254;DHT22;6189;52.526;13.390;2023-04-06T03:35:13;7.20;88.60
12254;DHT22;6189;52.526;13.390;2023-04-06T03:37:59;7.20;88.40
12254;DHT22;6189;52.526;13.390;2023-04-06T03:40:45;7.20;88.90
12254;DHT22;6189;52.526;13.390;2023-04-06T03:43:30;7.10;89.20
12254;DHT22;6189;52.526;13.390;2023-04-06T03:46:18;7.20;89.40
12254;DHT22;6189;52.526;13.390;2023-04-06T03:49:03;7.20;89.00
12254;DHT22;6189;52.526;13.390;2023-04-06T03:51:50;7.20;88.40
12254;DHT22;6189;52.526;13.390;2023-04-06T03:54:35;7.20;88.40
12254;DHT22;6189;52.526;13.390;2023-04-06T03:57:21;7.10;88.70
12254;DHT22;6189;52.526;13.390;2023-04-06T04:00:08;7.20;89.00
12254;DHT22;6189;52.526;13.390;2023-04-06T04:02:54;7.20;89.00
12254;DHT22;6189;52.526;13.390;2023-04-06T04:05:40;7.20;88.70
12254;DHT22;6189;52.526;13.390;2023-04-06T04:08:27;7.10;88.80
12254;DHT22;6189;52.526;13.390;2023-04-06T04:11:13;7.10;88.70
12254;DHT22;6189;52.526;13.390;2023-04-06T04:13:59;7.10;88.70
12254;DHT22;6189;52.526;13.390;2023-04-06T04:16:45;7.10;88.80
12254;DHT22;6189;52.526;13.390;2023-04-06T04:19:31;7.10;89.70
12254;DHT22;6189;52.526;13.390;2023-04-06T04:22:16;7.10;89.10
12254;DHT22;6189;52.526;13.390;2023-04-06T04:25:04;7.00;89.10
12254;DHT22;6189;52.526;13.390;2023-04-06T04:27:50;6.90;89.40
12254;DHT22;6189;52.526;13.390;2023-04-06T04:30:35;6.90;89.80
12254;DHT22;6189;52.526;13.390;2023-04-06T04:33:21;6.90;90.00
12254;DHT22;6189;52.526;13.390;2023-04-06T04:36:07;6.90;90.10
12254;DHT22;6189;52.526;13.390;2023-04-06T04:38:54;7.00;90.30
12254;DHT22;6189;52.526;13.390;2023-04-06T04:41:41;7.00;90.40
12254;DHT22;6189;52.526;13.390;2023-04-06T04:44:27;7.00;90.40
12254;DHT22;6189;52.526;13.390;2023-04-06T04:47:12;7.00;90.60
12254;DHT22;6189;52.526;13.390;2023-04-06T04:49:58;7.00;90.30
12254;DHT22;6189;52.526;13.390;2023-04-06T04:52:44;7.00;90.20
12254;DHT22;6189;52.526;13.390;2023-04-06T04:55:30;7.00;90.30
12254;DHT22;6189;52.526;13.390;2023-04-06T04:58:19;7.00;90.30
12254;DHT22;6189;52.526;13.390;2023-04-06T05:01:05;7.00;90.80
12254;DHT22;6189;52.526;13.390;2023-04-06T05:03:51;7.10;91.10
12254;DHT22;6189;52.526;13.390;2023-04-06T05:06:36;7.10;91.10
12254;DHT22;6189;52.526;13.390;2023-04-06T05:09:22;7.10;91.00
12254;DHT22;6189;52.526;13.390;2023-04-06T05:12:09;7.10;91.10
12254;DHT22;6189;52.526;13.390;2023-04-06T05:14:57;7.10;91.20
12254;DHT22;6189;52.526;13.390;2023-04-06T05:17:42;7.10;91.30
12254;DHT22;6189;52.526;13.390;2023-04-06T05:20:28;7.00;91.60
12254;DHT22;6189;52.526;13.390;2023-04-06T05:23:14;7.00;92.10
12254;DHT22;6189;52.526;13.390;2023-04-06T05:25:59;7.00;92.00
12254;DHT22;6189;52.526;13.390;2023-04-06T05:28:45;7.10;92.20
12254;DHT22;6189;52.526;13.390;2023-04-06T05:31:32;6.90;92.60
12254;DHT22;6189;52.526;13.390;2023-04-06T05:34:18;7.00;92.70
12254;DHT22;6189;52.526;13.390;2023-04-06T05:37:04;7.10;92.70
12254;DHT22;6189;52.526;13.390;2023-04-06T05:39:49;7.10;92.70
12254;DHT22;6189;52.526;13.390;2023-04-06T05:42:36;7.10;92.70
12254;DHT22;6189;52.526;13.390;2023-04-06T05:45:22;7.20;92.60
12254;DHT22;6189;52.526;13.390;2023-04-06T05:48:10;7.20;92.80
12254;DHT22;6189;52.526;13.390;2023-04-06T05:50:56;7.10;92.60
12254;DHT22;6189;52.526;13.390;2023-04-06T05:53:41;7.00;92.90
12254;DHT22;6189;52.526;13.390;2023-04-06T05:56:27;7.10;92.90
12254;DHT22;6189;52.526;13.390;2023-04-06T05:59:14;7.20;92.50
12254;DHT22;6189;52.526;13.390;2023-04-06T06:02:00;7.30;92.50
12254;DHT22;6189;52.526;13.390;2023-04-06T06:04:47;7.30;92.50
12254;DHT22;6189;52.526;13.390;2023-04-06T06:07:33;7.30;92.20
12254;DHT22;6189;52.526;13.390;2023-04-06T06:10:19;7.20;92.50
12254;DHT22;6189;52.526;13.390;2023-04-06T06:13:05;7.20;92.50
12254;DHT22;6189;52.526;13.390;2023-04-06T06:15:51;7.30;92.40
12254;DHT22;6189;52.526;13.390;2023-04-06T06:18:36;7.10;92.90
12254;DHT22;6189;52.526;13.390;2023-04-06T06:21:23;7.20;92.70
12254;DHT22;6189;52.526;13.390;2023-04-06T06:24:08;7.30;92.40
12254;DHT22;6189;52.526;13.390;2023-04-06T06:26:54;7.20;92.50
12254;DHT22;6189;52.526;13.390;2023-04-06T06:29:40;7.00;93.20
12254;DHT22;6189;52.526;13.390;2023-04-06T06:32:26;7.10;93.50
12254;DHT22;6189;52.526;13.390;2023-04-06T06:35:12;7.20;94.10
12254;DHT22;6189;52.526;13.390;2023-04-06T06:37:59;7.00;94.40
12254;DHT22;6189;52.526;13.390;2023-04-06T06:40:45;7.00;94.40
12254;DHT22;6189;52.526;13.390;2023-04-06T06:43:31;7.30;93.60
12254;DHT22;6189;52.526;13.390;2023-04-06T06:46:16;7.30;94.00
12254;DHT22;6189;52.526;13.390;2023-04-06T06:49:02;7.40;93.20
12254;DHT22;6189;52.526;13.390;2023-04-06T06:51:48;7.60;92.90
12254;DHT22;6189;52.526;13.390;2023-04-06T06:54:35;7.70;92.40
12254;DHT22;6189;52.526;13.390;2023-04-06T06:57:20;7.40;92.80
12254;DHT22;6189;52.526;13.390;2023-04-06T07:00:07;7.50;92.90
12254;DHT22;6189;52.526;13.390;2023-04-06T07:02:53;7.80;92.60
12254;DHT22;6189;52.526;13.390;2023-04-06T07:05:40;7.40;92.60
12254;DHT22;6189;52.526;13.390;2023-04-06T07:08:33;7.60;92.60
12254;DHT22;6189;52.526;13.390;2023-04-06T07:11:20;7.80;91.00
12254;DHT22;6189;52.526;13.390;2023-04-06T07:14:06;7.90;90.70
12254;DHT22;6189;52.526;13.390;2023-04-06T07:16:52;8.10;90.60
12254;DHT22;6189;52.526;13.390;2023-04-06T07:19:37;8.00;90.70
12254;DHT22;6189;52.526;13.390;2023-04-06T07:22:23;8.10;90.20
12254;DHT22;6189;52.526;13.390;2023-04-06T07:25:09;8.00;90.60
12254;DHT22;6189;52.526;13.390;2023-04-06T07:27:56;7.90;91.50
12254;DHT22;6189;52.526;13.390;2023-04-06T07:30:42;7.80;91.50
12254;DHT22;6189;52.526;13.390;2023-04-06T07:33:28;8.10;90.70
12254;DHT22;6189;52.526;13.390;2023-04-06T07:36:14;8.20;90.30
12254;DHT22;6189;52.526;13.390;2023-04-06T07:38:59;8.40;89.80
12254;DHT22;6189;52.526;13.390;2023-04-06T07:41:45;8.50;87.80
12254;DHT22;6189;52.526;13.390;2023-04-06T07:44:32;8.70;88.10
12254;DHT22;6189;52.526;13.390;2023-04-06T07:47:18;8.60;87.90
12254;DHT22;6189;52.526;13.390;2023-04-06T07:50:04;8.70;86.60
12254;DHT22;6189;52.526;13.390;2023-04-06T07:52:50;8.70;86.90
12254;DHT22;6189;52.526;13.390;2023-04-06T07:55:36;8.60;87.20
12254;DHT22;6189;52.526;13.390;2023-04-06T07:58:23;8.70;87.60
12254;DHT22;6189;52.526;13.390;2023-04-06T08:01:10;8.80;85.50
12254;DHT22;6189;52.526;13.390;2023-04-06T08:03:56;8.90;85.10
12254;DHT22;6189;52.526;13.390;2023-04-06T08:06:43;9.00;85.50
12254;DHT22;6189;52.526;13.390;2023-04-06T08:09:28;8.80;85.60
12254;DHT22;6189;52.526;13.390;2023-04-06T08:12:15;9.00;84.80
12254;DHT22;6189;52.526;13.390;2023-04-06T08:15:00;9.00;84.40
12254;DHT22;6189;52.526;13.390;2023-04-06T08:17:49;9.20;83.60
12254;DHT22;6189;52.526;13.390;2023-04-06T08:20:35;9.20;83.20
12254;DHT22;6189;52.526;13.390;2023-04-06T08:23:21;9.20;83.40
12254;DHT22;6189;52.526;13.390;2023-04-06T08:26:06;9.20;81.50
12254;DHT22;6189;52.526;13.390;2023-04-06T08:28:52;9.30;81.60
12254;DHT22;6189;52.526;13.390;2023-04-06T08:31:38;9.40;81.50
12254;DHT22;6189;52.526;13.390;2023-04-06T08:34:25;9.70;81.20
12254;DHT22;6189;52.526;13.390;2023-04-06T08:37:11;9.70;79.70
12254;DHT22;6189;52.526;13.390;2023-04-06T08:39:57;9.70;77.80
12254;DHT22;6189;52.526;13.390;2023-04-06T08:42:49;9.70;77.30
12254;DHT22;6189;52.526;13.390;2023-04-06T08:45:35;9.80;77.20
12254;DHT22;6189;52.526;13.390;2023-04-06T08:48:21;9.70;76.50
12254;DHT22;6189;52.526;13.390;2023-04-06T08:51:10;9.80;76.00
12254;DHT22;6189;52.526;13.390;2023-04-06T08:53:56;10.00;73.30
12254;DHT22;6189;52.526;13.390;2023-04-06T08:56:43;10.00;73.50
12254;DHT22;6189;52.526;13.390;2023-04-06T08:59:29;10.00;72.10
12254;DHT22;6189;52.526;13.390;2023-04-06T09:02:18;10.20;72.60
12254;DHT22;6189;52.526;13.390;2023-04-06T09:05:04;10.20;71.40
12254;DHT22;6189;52.526;13.390;2023-04-06T09:07:51;10.20;71.00
12254;DHT22;6189;52.526;13.390;2023-04-06T09:10:40;10.20;71.30
12254;DHT22;6189;52.526;13.390;2023-04-06T09:13:26;10.50;71.00
12254;DHT22;6189;52.526;13.390;2023-04-06T09:16:11;10.60;70.70
12254;DHT22;6189;52.526;13.390;2023-04-06T09:19:03;10.60;68.30
12254;DHT22;6189;52.526;13.390;2023-04-06T09:21:49;10.50;68.70
12254;DHT22;6189;52.526;13.390;2023-04-06T09:24:44;10.60;71.90
12254;DHT22;6189;52.526;13.390;2023-04-06T09:27:31;10.90;71.50
12254;DHT22;6189;52.526;13.390;2023-04-06T09:30:17;11.60;69.30
12254;DHT22;6189;52.526;13.390;2023-04-06T09:33:02;12.60;67.60
12254;DHT22;6189;52.526;13.390;2023-04-06T09:35:49;13.70;62.00
12254;DHT22;6189;52.526;13.390;2023-04-06T09:38:37;14.10;60.40
12254;DHT22;6189;52.526;13.390;2023-04-06T09:41:26;14.90;60.60
12254;DHT22;6189;52.526;13.390;2023-04-06T09:44:12;15.80;57.10
12254;DHT22;6189;52.526;13.390;2023-04-06T09:46:57;16.20;55.80
12254;DHT22;6189;52.526;13.390;2023-04-06T09:49:43;16.30;53.80
12254;DHT22;6189;52.526;13.390;2023-04-06T09:52:32;16.00;51.90
12254;DHT22;6189;52.526;13.390;2023-04-06T09:55:23;16.20;53.60
12254;DHT22;6189;52.526;13.390;2023-04-06T09:58:13;16.10;51.50
12254;DHT22;6189;52.526;13.390;2023-04-06T10:01:07;16.20;53.00
12254;DHT22;6189;52.526;13.390;2023-04-06T10:03:57;15.80;52.10
12254;DHT22;6189;52.526;13.390;2023-04-06T10:06:46;16.50;52.80
12254;DHT22;6189;52.526;13.390;2023-04-06T10:09:37;16.40;51.40
12254;DHT22;6189;52.526;13.390;2023-04-06T10:12:23;16.60;51.30
12254;DHT22;6189;52.526;13.390;2023-04-06T10:15:10;16.20;45.90
12254;DHT22;6189;52.526;13.390;2023-04-06T10:17:56;16.30;47.20
12254;DHT22;6189;52.526;13.390;2023-04-06T10:20:48;16.60;47.20
12254;DHT22;6189;52.526;13.390;2023-04-06T10:23:37;16.80;45.80
12254;DHT22;6189;52.526;13.390;2023-04-06T10:26:25;16.70;46.10
12254;DHT22;6189;52.526;13.390;2023-04-06T10:29:11;17.00;45.80
12254;DHT22;6189;52.526;13.390;2023-04-06T10:31:58;17.40;45.30
12254;DHT22;6189;52.526;13.390;2023-04-06T10:34:44;17.50;44.30
12254;DHT22;6189;52.526;13.390;2023-04-06T10:37:46;17.50;45.20
12254;DHT22;6189;52.526;13.390;2023-04-06T10:40:35;18.00;45.10
12254;DHT22;6189;52.526;13.390;2023-04-06T10:43:22;17.80;41.50
12254;DHT22;6189;52.526;13.390;2023-04-06T10:46:08;17.50;42.60
12254;DHT22;6189;52.526;13.390;2023-04-06T10:48:56;17.60;42.50
12254;DHT22;6189;52.526;13.390;2023-04-06T10:51:42;17.70;41.90
12254;DHT22;6189;52.526;13.390;2023-04-06T10:54:28;17.10;42.00
12254;DHT22;6189;52.526;13.390;2023-04-06T10:57:16;17.00;40.10
12254;DHT22;6189;52.526;13.390;2023-04-06T11:00:01;17.00;41.80
12254;DHT22;6189;52.526;13.390;2023-04-06T11:02:48;17.10;41.70
12254;DHT22;6189;52.526;13.390;2023-04-06T11:05:35;17.50;41.40
12254;DHT22;6189;52.526;13.390;2023-04-06T11:08:25;17.80;43.40
12254;DHT22;6189;52.526;13.390;2023-04-06T11:11:13;17.80;40.80
12254;DHT22;6189;52.526;13.390;2023-04-06T11:14:00;17.90;41.10
12254;DHT22;6189;52.526;13.390;2023-04-06T11:16:47;18.10;41.90
12254;DHT22;6189;52.526;13.390;2023-04-06T11:19:34;18.20;40.90
12254;DHT22;6189;52.526;13.390;2023-04-06T11:22:21;18.50;41.00
12254;DHT22;6189;52.526;13.390;2023-04-06T11:25:07;18.40;41.10
12254;DHT22;6189;52.526;13.390;2023-04-06T11:27:53;18.50;40.00
12254;DHT22;6189;52.526;13.390;2023-04-06T11:30:39;18.40;39.80
12254;DHT22;6189;52.526;13.390;2023-04-06T11:33:24;18.30;39.40
12254;DHT22;6189;52.526;13.390;2023-04-06T11:36:11;18.50;40.50
12254;DHT22;6189;52.526;13.390;2023-04-06T11:39:00;18.30;38.50
12254;DHT22;6189;52.526;13.390;2023-04-06T11:41:47;18.50;40.60
12254;DHT22;6189;52.526;13.390;2023-04-06T11:44:35;18.70;40.10
12254;DHT22;6189;52.526;13.390;2023-04-06T11:47:27;18.50;41.80
12254;DHT22;6189;52.526;13.390;2023-04-06T11:50:14;18.60;40.60
12254;DHT22;6189;52.526;13.390;2023-04-06T11:53:01;18.70;41.40
12254;DHT22;6189;52.526;13.390;2023-04-06T11:55:48;18.90;40.80
12254;DHT22;6189;52.526;13.390;2023-04-06T11:58:34;17.70;40.90
12254;DHT22;6189;52.526;13.390;2023-04-06T12:01:20;17.10;41.10
12254;DHT22;6189;52.526;13.390;2023-04-06T12:04:06;17.80;42.70
12254;DHT22;6189;52.526;13.390;2023-04-06T12:06:52;17.80;40.90
12254;DHT22;6189;52.526;13.390;2023-04-06T12:09:37;17.60;39.60
12254;DHT22;6189;52.526;13.390;2023-04-06T12:12:25;17.80;42.60
12254;DHT22;6189;52.526;13.390;2023-04-06T12:15:10;18.30;43.20
12254;DHT22;6189;52.526;13.390;2023-04-06T12:17:56;17.10;44.70
12254;DHT22;6189;52.526;13.390;2023-04-06T12:20:42;16.70;44.30
12254;DHT22;6189;52.526;13.390;2023-04-06T12:23:28;17.00;43.30
12254;DHT22;6189;52.526;13.390;2023-04-06T12:26:13;17.30;42.10
12254;DHT22;6189;52.526;13.390;2023-04-06T12:29:00;17.60;41.10
12254;DHT22;6189;52.526;13.390;2023-04-06T12:31:51;17.80;41.50
12254;DHT22;6189;52.526;13.390;2023-04-06T12:34:37;17.70;40.20
12254;DHT22;6189;52.526;13.390;2023-04-06T12:37:23;17.50;41.10
12254;DHT22;6189;52.526;13.390;2023-04-06T12:40:10;17.20;39.20
12254;DHT22;6189;52.526;13.390;2023-04-06T12:42:56;16.70;41.40
12254;DHT22;6189;52.526;13.390;2023-04-06T12:45:43;16.30;41.90
12254;DHT22;6189;52.526;13.390;2023-04-06T12:48:29;16.40;42.90
12254;DHT22;6189;52.526;13.390;2023-04-06T12:51:14;16.80;42.40
12254;DHT22;6189;52.526;13.390;2023-04-06T12:54:01;17.40;42.10
12254;DHT22;6189;52.526;13.390;2023-04-06T12:56:47;16.80;41.30
12254;DHT22;6189;52.526;13.390;2023-04-06T12:59:33;17.10;42.00
12254;DHT22;6189;52.526;13.390;2023-04-06T13:02:20;17.40;41.90
12254;DHT22;6189;52.526;13.390;2023-04-06T13:05:06;17.60;40.20
12254;DHT22;6189;52.526;13.390;2023-04-06T13:07:52;17.40;40.10
12254;DHT22;6189;52.526;13.390;2023-04-06T13:10:38;16.70;41.00
12254;DHT22;6189;52.526;13.390;2023-04-06T13:13:24;16.30;42.50
12254;DHT22;6189;52.526;13.390;2023-04-06T13:16:10;16.20;42.20
12254;DHT22;6189;52.526;13.390;2023-04-06T13:18:57;16.20;43.10
12254;DHT22;6189;52.526;13.390;2023-04-06T13:21:43;16.50;41.90
12254;DHT22;6189;52.526;13.390;2023-04-06T13:24:29;16.80;42.20
12254;DHT22;6189;52.526;13.390;2023-04-06T13:27:14;17.00;42.60
12254;DHT22;6189;52.526;13.390;2023-04-06T13:30:00;17.00;42.90
12254;DHT22;6189;52.526;13.390;2023-04-06T13:32:46;16.80;42.40
12254;DHT22;6189;52.526;13.390;2023-04-06T13:35:33;16.40;43.60
12254;DHT22;6189;52.526;13.390;2023-04-06T13:38:20;15.90;43.70
12254;DHT22;6189;52.526;13.390;2023-04-06T13:41:08;15.90;44.60
12254;DHT22;6189;52.526;13.390;2023-04-06T13:43:53;16.10;43.90
12254;DHT22;6189;52.526;13.390;2023-04-06T13:46:39;16.10;43.90
12254;DHT22;6189;52.526;13.390;2023-04-06T13:49:25;16.20;43.40
12254;DHT22;6189;52.526;13.390;2023-04-06T13:52:12;16.20;43.30
12254;DHT22;6189;52.526;13.390;2023-04-06T13:54:58;15.80;44.20
12254;DHT22;6189;52.526;13.390;2023-04-06T13:57:44;15.80;43.00
12254;DHT22;6189;52.526;13.390;2023-04-06T14:00:30;15.60;44.10
12254;DHT22;6189;52.526;13.390;2023-04-06T14:03:15;15.40;44.10
12254;DHT22;6189;52.526;13.390;2023-04-06T14:06:01;15.30;45.40
12254;DHT22;6189;52.526;13.390;2023-04-06T14:08:48;15.50;44.60
12254;DHT22;6189;52.526;13.390;2023-04-06T14:11:34;15.70;44.50
12254;DHT22;6189;52.526;13.390;2023-04-06T14:14:21;15.50;45.30
12254;DHT22;6189;52.526;13.390;2023-04-06T14:17:07;15.30;44.30
12254;DHT22;6189;52.526;13.390;2023-04-06T14:19:52;14.60;45.40
12254;DHT22;6189;52.526;13.390;2023-04-06T14:22:38;14.20;45.90
12254;DHT22;6189;52.526;13.390;2023-04-06T14:25:25;13.80;46.80
12254;DHT22;6189;52.526;13.390;2023-04-06T14:28:11;13.80;47.70
12254;DHT22;6189;52.526;13.390;2023-04-06T14:30:58;13.90;46.90
12254;DHT22;6189;52.526;13.390;2023-04-06T14:33:44;14.40;46.80
12254;DHT22;6189;52.526;13.390;2023-04-06T14:36:31;14.40;46.20
12254;DHT22;6189;52.526;13.390;2023-04-06T14:39:20;13.90;46.40
12254;DHT22;6189;52.526;13.390;2023-04-06T14:42:07;14.00;47.30
12254;DHT22;6189;52.526;13.390;2023-04-06T14:44:53;14.40;47.20
12254;DHT22;6189;52.526;13.390;2023-04-06T14:47:38;14.20;46.90
12254;DHT22;6189;52.526;13.390;2023-04-06T14:50:24;13.90;46.60
12254;DHT22;6189;52.526;13.390;2023-04-06T14:53:10;13.50;47.40
12254;DHT22;6189;52.526;13.390;2023-04-06T14:55:57;13.50;48.20
12254;DHT22;6189;52.526;13.390;2023-04-06T14:58:44;13.60;48.50
12254;DHT22;6189;52.526;13.390;2023-04-06T15:01:34;13.90;47.50
12254;DHT22;6189;52.526;13.390;2023-04-06T15:04:19;13.90;48.20
12254;DHT22;6189;52.526;13.390;2023-04-06T15:07:05;14.20;47.40
12254;DHT22;6189;52.526;13.390;2023-04-06T15:09:51;14.20;46.60
12254;DHT22;6189;52.526;13.390;2023-04-06T15:12:36;14.10;47.00
12254;DHT22;6189;52.526;13.390;2023-04-06T15:15:23;13.60;47.30
12254;DHT22;6189;52.526;13.390;2023-04-06T15:18:09;13.20;48.20
12254;DHT22;6189;52.526;13.390;2023-04-06T15:20:55;13.10;49.00
12254;DHT22;6189;52.526;13.390;2023-04-06T15:23:41;13.20;49.30
12254;DHT22;6189;52.526;13.390;2023-04-06T15:26:27;13.40;49.10
12254;DHT22;6189;52.526;13.390;2023-04-06T15:29:13;13.50;49.50
12254;DHT22;6189;52.526;13.390;2023-04-06T15:31:59;13.20;49.10
12254;DHT22;6189;52.526;13.390;2023-04-06T15:34:46;13.00;49.30
12254;DHT22;6189;52.526;13.390;2023-04-06T15:37:31;12.90;50.20
12254;DHT22;6189;52.526;13.390;2023-04-06T15:40:17;12.60;49.40
12254;DHT22;6189;52.526;13.390;2023-04-06T15:43:02;12.50;50.10
12254;DHT22;6189;52.526;13.390;2023-04-06T15:45:48;12.50;50.00
12254;DHT22;6189;52.526;13.390;2023-04-06T15:48:35;12.50;49.70
12254;DHT22;6189;52.526;13.390;2023-04-06T15:51:21;12.40;49.60
12254;DHT22;6189;52.526;13.390;2023-04-06T15:54:07;12.50;49.70
12254;DHT22;6189;52.526;13.390;2023-04-06T15:56:53;12.30;50.20
12254;DHT22;6189;52.526;13.390;2023-04-06T15:59:39;12.50;50.80
12254;DHT22;6189;52.526;13.390;2023-04-06T16:02:25;12.60;49.60
12254;DHT22;6189;52.526;13.390;2023-04-06T16:05:12;12.50;49.90
12254;DHT22;6189;52.526;13.390;2023-04-06T16:07:58;12.50;50.00
12254;DHT22;6189;52.526;13.390;2023-04-06T16:10:44;12.90;50.10
12254;DHT22;6189;52.526;13.390;2023-04-06T16:13:31;12.70;49.60
12254;DHT22;6189;52.526;13.390;2023-04-06T16:16:17;12.60;49.60
12254;DHT22;6189;52.526;13.390;2023-04-06T16:19:04;12.30;50.10
12254;DHT22;6189;52.526;13.390;2023-04-06T16:21:51;12.10;50.50
12254;DHT22;6189;52.526;13.390;2023-04-06T16:24:37;12.20;51.30
12254;DHT22;6189;52.526;13.390;2023-04-06T16:27:22;12.30;51.40
12254;DHT22;6189;52.526;13.390;2023-04-06T16:30:09;12.20;50.70
12254;DHT22;6189;52.526;13.390;2023-04-06T16:32:55;12.40;50.40
12254;DHT22;6189;52.526;13.390;2023-04-06T16:35:42;12.40;50.50
12254;DHT22;6189;52.526;13.390;2023-04-06T16:38:30;12.20;50.30
12254;DHT22;6189;52.526;13.390;2023-04-06T16:41:19;11.90;51.30
12254;DHT22;6189;52.526;13.390;2023-04-06T16:44:04;12.00;51.20
12254;DHT22;6189;52.526;13.390;2023-04-06T16:46:50;12.10;50.50
12254;DHT22;6189;52.526;13.390;2023-04-06T16:49:36;12.10;50.40
12254;DHT22;6189;52.526;13.390;2023-04-06T16:52:22;12.30;50.90
12254;DHT22;6189;52.526;13.390;2023-04-06T16:55:10;12.60;50.30
12254;DHT22;6189;52.526;13.390;2023-04-06T16:57:55;12.70;50.50
12254;DHT22;6189;52.526;13.390;2023-04-06T17:00:41;12.50;50.50
12254;DHT22;6189;52.526;13.390;2023-04-06T17:03:27;12.10;51.00
12254;DHT22;6189;52.526;13.390;2023-04-06T17:06:12;11.90;51.50
12254;DHT22;6189;52.526;13.390;2023-04-06T17:08:58;11.80;52.00
12254;DHT22;6189;52.526;13.390;2023-04-06T17:11:45;11.90;51.90
12254;DHT22;6189;52.526;13.390;2023-04-06T17:14:31;12.20;51.90
12254;DHT22;6189;52.526;13.390;2023-04-06T17:17:16;12.10;51.50
12254;DHT22;6189;52.526;13.390;2023-04-06T17:20:02;11.80;52.20
12254;DHT22;6189;52.526;13.390;2023-04-06T17:22:48;11.50;52.60
12254;DHT22;6189;52.526;13.390;2023-04-06T17:25:35;11.50;52.70
12254;DHT22;6189;52.526;13.390;2023-04-06T17:28:22;11.50;52.90
12254;DHT22;6189;52.526;13.390;2023-04-06T17:31:08;11.40;52.90
12254;DHT22;6189;52.526;13.390;2023-04-06T17:33:54;11.30;53.10
12254;DHT22;6189;52.526;13.390;2023-04-06T17:36:39;11.30;53.40
12254;DHT22;6189;52.526;13.390;2023-04-06T17:39:25;11.20;53.10